PWSweather.com
Personal Weather Stations
Station Observations
VPOKROGLO
Kal Nad Kanalom, PrimorskaSI

Kal Nad KanalomPrimorskaSI

Lat: 46.072, Lon: 13.734

Elevation: 2526

Station Type: WS-2355

http://www.okroglovreme.com

High Low Average
Temperature 62.4°F16.9°F 47.5°F8.6°F 54.5°F12.5°F
Dew Point 43.5°F6.4°F 31.9°F-0.1°F 37.7°F3.2°F
Winds 3.6 mph NNE5.8 mph NNE 0.2 mph 0.3 mph 1.2 mph 1.9 mph
Wind Gusts 13.2 mph21.2 mph 2.0 mph3.2 mph 5.9 mph9.5 mph
Humidity 71% 36% 54%
Pressure 30.09 in1019.00 in 29.94 in1013.90 in -
Precipitation 0.00 in0.00 in - -
Hour Temp Dew Point Humidity Winds Wind Gusts Pressure Precip Precip Rate Daily Precip Total
12:00 AM 52.3°F11.3°C 43.2°F6.2°C 71% 1.1 mph WSW1.8 kmh WSW 3.8 mph6.1 kmh 29.95 in1014.2 mb 0.00 in0.0 mm 0.00 in0.0 mm 0.00 in0.0 mm
12:15 AM 52.5°F11.4°C 43.0°F6.1°C 70% 1.0 mph NW1.6 kmh NW 5.4 mph8.7 kmh 29.95 in1014.2 mb 0.00 in0.0 mm 0.00 in0.0 mm 0.00 in0.0 mm
12:30 AM 52.3°F11.3°C 42.8°F6.0°C 70% 0.9 mph W1.4 kmh W 4.0 mph6.4 kmh 29.94 in1013.9 mb 0.00 in0.0 mm 0.00 in0.0 mm 0.00 in0.0 mm
12:45 AM 52.3°F11.3°C 42.8°F6.0°C 70% 0.8 mph NW1.3 kmh NW 3.6 mph5.8 kmh 29.95 in1014.2 mb 0.00 in0.0 mm 0.00 in0.0 mm 0.00 in0.0 mm
01:00 AM 52.3°F11.3°C 42.5°F5.8°C 69% 1.0 mph WSW1.6 kmh WSW 6.7 mph10.8 kmh 29.95 in1014.2 mb 0.00 in0.0 mm 0.00 in0.0 mm 0.00 in0.0 mm
01:15 AM 52.3°F11.3°C 42.1°F5.6°C 68% 1.0 mph W1.6 kmh W 4.5 mph7.2 kmh 29.94 in1013.9 mb 0.00 in0.0 mm 0.00 in0.0 mm 0.00 in0.0 mm
01:30 AM 52.2°F11.2°C 41.9°F5.5°C 68% 0.6 mph SW1.0 kmh SW 3.1 mph5.0 kmh 29.95 in1014.2 mb 0.00 in0.0 mm 0.00 in0.0 mm 0.00 in0.0 mm
01:45 AM 52.2°F11.2°C 41.5°F5.3°C 67% 0.8 mph WSW1.3 kmh WSW 3.8 mph6.1 kmh 29.95 in1014.2 mb 0.00 in0.0 mm 0.00 in0.0 mm 0.00 in0.0 mm
02:00 AM 52.2°F11.2°C 41.5°F5.3°C 67% 0.6 mph WSW1.0 kmh WSW 4.5 mph7.2 kmh 29.95 in1014.2 mb 0.00 in0.0 mm 0.00 in0.0 mm 0.00 in0.0 mm
02:15 AM 51.8°F11.0°C 41.2°F5.1°C 67% 0.5 mph W0.8 kmh W 3.1 mph5.0 kmh 29.94 in1013.9 mb 0.00 in0.0 mm 0.00 in0.0 mm 0.00 in0.0 mm
02:30 AM 52.0°F11.1°C 41.4°F5.2°C 67% 0.8 mph WSW1.3 kmh WSW 5.6 mph9.0 kmh 29.94 in1013.9 mb 0.00 in0.0 mm 0.00 in0.0 mm 0.00 in0.0 mm
02:45 AM 51.6°F10.9°C 40.6°F4.8°C 66% 0.4 mph WSW0.6 kmh WSW 2.2 mph3.5 kmh 29.94 in1013.9 mb 0.00 in0.0 mm 0.00 in0.0 mm 0.00 in0.0 mm
03:00 AM 52.0°F11.1°C 41.0°F5.0°C 66% 0.5 mph SW0.8 kmh SW 3.1 mph5.0 kmh 29.94 in1013.9 mb 0.00 in0.0 mm 0.00 in0.0 mm 0.00 in0.0 mm
03:15 AM 52.0°F11.1°C 40.6°F4.8°C 65% 0.7 mph W1.1 kmh W 6.3 mph10.1 kmh 29.94 in1013.9 mb 0.00 in0.0 mm 0.00 in0.0 mm 0.00 in0.0 mm
03:30 AM 51.6°F10.9°C 40.6°F4.8°C 66% 0.2 mph WSW0.3 kmh WSW 2.5 mph4.0 kmh 29.94 in1013.9 mb 0.00 in0.0 mm 0.00 in0.0 mm 0.00 in0.0 mm
03:45 AM 52.0°F11.1°C 40.2°F4.6°C 64% 0.8 mph WSW1.3 kmh WSW 3.6 mph5.8 kmh 29.94 in1013.9 mb 0.00 in0.0 mm 0.00 in0.0 mm 0.00 in0.0 mm
04:00 AM 52.0°F11.1°C 39.8°F4.3°C 63% 0.9 mph WSW1.4 kmh WSW 4.7 mph7.6 kmh 29.95 in1014.2 mb 0.00 in0.0 mm 0.00 in0.0 mm 0.00 in0.0 mm
04:15 AM 51.8°F11.0°C 39.6°F4.2°C 63% 0.7 mph WSW1.1 kmh WSW 2.9 mph4.7 kmh 29.95 in1014.2 mb 0.00 in0.0 mm 0.00 in0.0 mm 0.00 in0.0 mm
04:30 AM 51.6°F10.9°C 39.0°F3.9°C 62% 0.8 mph SSW1.3 kmh SSW 4.5 mph7.2 kmh 29.96 in1014.6 mb 0.00 in0.0 mm 0.00 in0.0 mm 0.00 in0.0 mm
04:45 AM 51.1°F10.6°C 38.9°F3.8°C 63% 0.6 mph SW1.0 kmh SW 5.4 mph8.7 kmh 29.96 in1014.6 mb 0.00 in0.0 mm 0.00 in0.0 mm 0.00 in0.0 mm
05:00 AM 50.5°F10.3°C 38.8°F3.8°C 64% 0.6 mph WSW1.0 kmh WSW 3.6 mph5.8 kmh 29.96 in1014.6 mb 0.00 in0.0 mm 0.00 in0.0 mm 0.00 in0.0 mm
05:15 AM 50.2°F10.1°C 38.5°F3.6°C 64% 0.6 mph WSW1.0 kmh WSW 2.7 mph4.3 kmh 29.97 in1014.9 mb 0.00 in0.0 mm 0.00 in0.0 mm 0.00 in0.0 mm
05:30 AM 50.4°F10.2°C 38.6°F3.7°C 64% 0.7 mph SW1.1 kmh SW 5.1 mph8.2 kmh 29.97 in1014.9 mb 0.00 in0.0 mm 0.00 in0.0 mm 0.00 in0.0 mm
05:45 AM 50.4°F10.2°C 38.6°F3.7°C 64% 0.3 mph WSW0.5 kmh WSW 3.1 mph5.0 kmh 29.97 in1014.9 mb 0.00 in0.0 mm 0.00 in0.0 mm 0.00 in0.0 mm
06:00 AM 50.2°F10.1°C 38.9°F3.8°C 65% 0.7 mph SSW1.1 kmh SSW 6.5 mph10.5 kmh 29.98 in1015.2 mb 0.00 in0.0 mm 0.00 in0.0 mm 0.00 in0.0 mm
06:15 AM 51.1°F10.6°C 39.7°F4.3°C 65% 1.3 mph SW2.1 kmh SW 5.1 mph8.2 kmh 29.98 in1015.2 mb 0.00 in0.0 mm 0.00 in0.0 mm 0.00 in0.0 mm
06:30 AM 51.6°F10.9°C 39.8°F4.3°C 64% 1.0 mph SSW1.6 kmh SSW 8.9 mph14.3 kmh 29.98 in1015.2 mb 0.00 in0.0 mm 0.00 in0.0 mm 0.00 in0.0 mm
06:45 AM 52.3°F11.3°C 40.5°F4.7°C 64% 0.3 mph SW0.5 kmh SW 2.9 mph4.7 kmh 29.99 in1015.6 mb 0.00 in0.0 mm 0.00 in0.0 mm 0.00 in0.0 mm
07:00 AM 52.3°F11.3°C 40.5°F4.7°C 64% 1.2 mph S1.9 kmh S 4.0 mph6.4 kmh 29.99 in1015.6 mb 0.00 in0.0 mm 0.00 in0.0 mm 0.00 in0.0 mm
07:15 AM 52.5°F11.4°C 41.1°F5.1°C 65% 0.7 mph SSW1.1 kmh SSW 3.6 mph5.8 kmh 29.99 in1015.6 mb 0.00 in0.0 mm 0.00 in0.0 mm 0.00 in0.0 mm
07:30 AM 52.7°F11.5°C 41.7°F5.4°C 66% 0.5 mph S0.8 kmh S 4.0 mph6.4 kmh 29.99 in1015.6 mb 0.00 in0.0 mm 0.00 in0.0 mm 0.00 in0.0 mm
07:45 AM 52.9°F11.6°C 41.8°F5.4°C 66% 0.7 mph WNW1.1 kmh WNW 5.8 mph9.3 kmh 29.99 in1015.6 mb 0.00 in0.0 mm 0.00 in0.0 mm 0.00 in0.0 mm
08:00 AM 52.9°F11.6°C 42.2°F5.7°C 67% 0.5 mph SW0.8 kmh SW 3.8 mph6.1 kmh 29.99 in1015.6 mb 0.00 in0.0 mm 0.00 in0.0 mm 0.00 in0.0 mm
08:15 AM 52.7°F11.5°C 42.0°F5.6°C 67% 0.7 mph SE1.1 kmh SE 4.3 mph6.9 kmh 30.00 in1015.9 mb 0.00 in0.0 mm 0.00 in0.0 mm 0.00 in0.0 mm
08:30 AM 53.8°F12.1°C 43.5°F6.4°C 68% 1.3 mph S2.1 kmh S 5.4 mph8.7 kmh 30.00 in1015.9 mb 0.00 in0.0 mm 0.00 in0.0 mm 0.00 in0.0 mm
08:45 AM 55.2°F12.9°C 43.2°F6.2°C 64% 1.6 mph S2.6 kmh S 4.9 mph7.9 kmh 30.00 in1015.9 mb 0.00 in0.0 mm 0.00 in0.0 mm 0.00 in0.0 mm
09:00 AM 56.1°F13.4°C 42.8°F6.0°C 61% 1.5 mph SW2.4 kmh SW 5.6 mph9.0 kmh 30.00 in1015.9 mb 0.00 in0.0 mm 0.00 in0.0 mm 0.00 in0.0 mm
09:15 AM 56.5°F13.6°C 41.0°F5.0°C 56% 1.4 mph NNW2.3 kmh NNW 4.0 mph6.4 kmh 30.01 in1016.3 mb 0.00 in0.0 mm 0.00 in0.0 mm 0.00 in0.0 mm
09:30 AM 57.4°F14.1°C 41.3°F5.2°C 55% 1.5 mph NNE2.4 kmh NNE 8.9 mph14.3 kmh 30.01 in1016.3 mb 0.00 in0.0 mm 0.00 in0.0 mm 0.00 in0.0 mm
09:45 AM 57.9°F14.4°C 41.8°F5.4°C 55% 1.4 mph N2.3 kmh N 4.9 mph7.9 kmh 30.01 in1016.3 mb 0.00 in0.0 mm 0.00 in0.0 mm 0.00 in0.0 mm
10:00 AM 58.8°F14.9°C 42.2°F5.7°C 54% 1.6 mph ESE2.6 kmh ESE 7.2 mph11.6 kmh 30.01 in1016.3 mb 0.00 in0.0 mm 0.00 in0.0 mm 0.00 in0.0 mm
10:15 AM 59.5°F15.3°C 42.4°F5.8°C 53% 1.2 mph NNE1.9 kmh NNE 7.6 mph12.2 kmh 30.02 in1016.6 mb 0.00 in0.0 mm 0.00 in0.0 mm 0.00 in0.0 mm
10:30 AM 59.9°F15.5°C 42.2°F5.7°C 52% 0.9 mph N1.4 kmh N 4.7 mph7.6 kmh 30.02 in1016.6 mb 0.00 in0.0 mm 0.00 in0.0 mm 0.00 in0.0 mm
10:45 AM 60.1°F15.6°C 41.9°F5.5°C 51% 1.4 mph W2.3 kmh W 6.0 mph9.7 kmh 30.02 in1016.6 mb 0.00 in0.0 mm 0.00 in0.0 mm 0.00 in0.0 mm
11:00 AM 60.4°F15.8°C 40.1°F4.5°C 47% 1.2 mph NW1.9 kmh NW 3.1 mph5.0 kmh 30.02 in1016.6 mb 0.00 in0.0 mm 0.00 in0.0 mm 0.00 in0.0 mm
11:15 AM 58.8°F14.9°C 38.6°F3.7°C 47% 1.1 mph NNW1.8 kmh NNW 6.9 mph11.1 kmh 30.02 in1016.6 mb 0.00 in0.0 mm 0.00 in0.0 mm 0.00 in0.0 mm
11:30 AM 58.3°F14.6°C 38.1°F3.4°C 47% 1.5 mph N2.4 kmh N 4.3 mph6.9 kmh 30.02 in1016.6 mb 0.00 in0.0 mm 0.00 in0.0 mm 0.00 in0.0 mm
11:45 AM 58.5°F14.7°C 37.7°F3.2°C 46% 1.3 mph N2.1 kmh N 7.4 mph11.9 kmh 30.02 in1016.6 mb 0.00 in0.0 mm 0.00 in0.0 mm 0.00 in0.0 mm
12:00 PM 58.6°F14.8°C 36.8°F2.7°C 44% 1.4 mph NE2.3 kmh NE 5.6 mph9.0 kmh 30.02 in1016.6 mb 0.00 in0.0 mm 0.00 in0.0 mm 0.00 in0.0 mm
12:15 PM 62.4°F16.9°C 38.4°F3.6°C 41% 1.9 mph N3.1 kmh N 6.3 mph10.1 kmh 30.02 in1016.6 mb 0.00 in0.0 mm 0.00 in0.0 mm 0.00 in0.0 mm
12:30 PM 59.5°F15.3°C 35.8°F2.1°C 41% 2.0 mph N3.2 kmh N 7.2 mph11.6 kmh 30.02 in1016.6 mb 0.00 in0.0 mm 0.00 in0.0 mm 0.00 in0.0 mm
12:45 PM 59.2°F15.1°C 36.1°F2.3°C 42% 1.8 mph N2.9 kmh N 8.9 mph14.3 kmh 30.03 in1016.9 mb 0.00 in0.0 mm 0.00 in0.0 mm 0.00 in0.0 mm
01:00 PM 59.0°F15.0°C 37.1°F2.8°C 44% 1.2 mph N1.9 kmh N 4.0 mph6.4 kmh 30.03 in1016.9 mb 0.00 in0.0 mm 0.00 in0.0 mm 0.00 in0.0 mm
01:15 PM 59.4°F15.2°C 37.4°F3.0°C 44% 2.2 mph N3.5 kmh N 8.5 mph13.7 kmh 30.03 in1016.9 mb 0.00 in0.0 mm 0.00 in0.0 mm 0.00 in0.0 mm
01:30 PM 60.1°F15.6°C 36.9°F2.7°C 42% 3.0 mph N4.8 kmh N 9.8 mph15.8 kmh 30.02 in1016.6 mb 0.00 in0.0 mm 0.00 in0.0 mm 0.00 in0.0 mm
01:45 PM 59.4°F15.2°C 36.8°F2.7°C 43% 2.2 mph N3.5 kmh N 9.2 mph14.8 kmh 30.03 in1016.9 mb 0.00 in0.0 mm 0.00 in0.0 mm 0.00 in0.0 mm
02:00 PM 61.0°F16.1°C 37.7°F3.2°C 42% 1.7 mph N2.7 kmh N 7.6 mph12.2 kmh 30.03 in1016.9 mb 0.00 in0.0 mm 0.00 in0.0 mm 0.00 in0.0 mm
02:15 PM 61.7°F16.5°C 37.7°F3.2°C 41% 2.5 mph N4.0 kmh N 9.6 mph15.4 kmh 30.03 in1016.9 mb 0.00 in0.0 mm 0.00 in0.0 mm 0.00 in0.0 mm
02:30 PM 60.6°F15.9°C 36.8°F2.7°C 41% 2.5 mph N4.0 kmh N 8.1 mph13.0 kmh 30.03 in1016.9 mb 0.00 in0.0 mm 0.00 in0.0 mm 0.00 in0.0 mm
02:45 PM 59.5°F15.3°C 36.4°F2.4°C 42% 3.2 mph NNE5.1 kmh NNE 10.5 mph16.9 kmh 30.03 in1016.9 mb 0.00 in0.0 mm 0.00 in0.0 mm 0.00 in0.0 mm
03:00 PM 60.1°F15.6°C 36.3°F2.4°C 41% 2.0 mph NNE3.2 kmh NNE 8.7 mph14.0 kmh 30.03 in1016.9 mb 0.00 in0.0 mm 0.00 in0.0 mm 0.00 in0.0 mm
03:15 PM 60.6°F15.9°C 36.8°F2.7°C 41% 1.9 mph N3.1 kmh N 6.3 mph10.1 kmh 30.03 in1016.9 mb 0.00 in0.0 mm 0.00 in0.0 mm 0.00 in0.0 mm
03:30 PM 57.9°F14.4°C 35.5°F1.9°C 43% 1.5 mph N2.4 kmh N 12.1 mph19.5 kmh 30.03 in1016.9 mb 0.00 in0.0 mm 0.00 in0.0 mm 0.00 in0.0 mm
03:45 PM 59.9°F15.5°C 35.5°F1.9°C 40% 3.6 mph NNE5.8 kmh NNE 12.1 mph19.5 kmh 30.03 in1016.9 mb 0.00 in0.0 mm 0.00 in0.0 mm 0.00 in0.0 mm
04:00 PM 61.3°F16.3°C 38.0°F3.3°C 42% 1.5 mph N2.4 kmh N 7.6 mph12.2 kmh 30.03 in1016.9 mb 0.00 in0.0 mm 0.00 in0.0 mm 0.00 in0.0 mm
04:15 PM 60.4°F15.8°C 37.2°F2.9°C 42% 3.0 mph NE4.8 kmh NE 13.2 mph21.2 kmh 30.03 in1016.9 mb 0.00 in0.0 mm 0.00 in0.0 mm 0.00 in0.0 mm
04:30 PM 60.8°F16.0°C 35.7°F2.1°C 39% 2.5 mph N4.0 kmh N 7.6 mph12.2 kmh 30.02 in1016.6 mb 0.00 in0.0 mm 0.00 in0.0 mm 0.00 in0.0 mm
04:45 PM 60.4°F15.8°C 33.3°F0.7°C 36% 2.3 mph NNE3.7 kmh NNE 11.2 mph18.0 kmh 30.03 in1016.9 mb 0.00 in0.0 mm 0.00 in0.0 mm 0.00 in0.0 mm
05:00 PM 57.4°F14.1°C 33.9°F1.1°C 41% 1.4 mph NE2.3 kmh NE 6.7 mph10.8 kmh 30.03 in1016.9 mb 0.00 in0.0 mm 0.00 in0.0 mm 0.00 in0.0 mm
05:15 PM 56.8°F13.8°C 34.0°F1.1°C 42% 1.6 mph NNE2.6 kmh NNE 7.6 mph12.2 kmh 30.03 in1016.9 mb 0.00 in0.0 mm 0.00 in0.0 mm 0.00 in0.0 mm
05:30 PM 57.4°F14.1°C 34.5°F1.4°C 42% 1.5 mph NNE2.4 kmh NNE 6.9 mph11.1 kmh 30.03 in1016.9 mb 0.00 in0.0 mm 0.00 in0.0 mm 0.00 in0.0 mm
05:45 PM 57.0°F13.9°C 34.7°F1.5°C 43% 2.2 mph NE3.5 kmh NE 7.6 mph12.2 kmh 30.04 in1017.3 mb 0.00 in0.0 mm 0.00 in0.0 mm 0.00 in0.0 mm
06:00 PM 57.4°F14.1°C 35.6°F2.0°C 44% 1.8 mph NNE2.9 kmh NNE 8.9 mph14.3 kmh 30.04 in1017.3 mb 0.00 in0.0 mm 0.00 in0.0 mm 0.00 in0.0 mm
06:15 PM 56.1°F13.4°C 33.9°F1.1°C 43% 1.9 mph NNE3.1 kmh NNE 11.4 mph18.3 kmh 30.04 in1017.3 mb 0.00 in0.0 mm 0.00 in0.0 mm 0.00 in0.0 mm
06:30 PM 54.9°F12.7°C 33.3°F0.7°C 44% 1.2 mph NNE1.9 kmh NNE 6.3 mph10.1 kmh 30.04 in1017.3 mb 0.00 in0.0 mm 0.00 in0.0 mm 0.00 in0.0 mm
06:45 PM 54.3°F12.4°C 33.4°F0.8°C 45% 1.3 mph N2.1 kmh N 6.7 mph10.8 kmh 30.04 in1017.3 mb 0.00 in0.0 mm 0.00 in0.0 mm 0.00 in0.0 mm
07:00 PM 53.6°F12.0°C 33.3°F0.7°C 46% 1.5 mph NNE2.4 kmh NNE 11.0 mph17.7 kmh 30.05 in1017.6 mb 0.00 in0.0 mm 0.00 in0.0 mm 0.00 in0.0 mm
07:15 PM 53.2°F11.8°C 33.5°F0.8°C 47% 0.9 mph N1.4 kmh N 5.1 mph8.2 kmh 30.05 in1017.6 mb 0.00 in0.0 mm 0.00 in0.0 mm 0.00 in0.0 mm
07:30 PM 52.9°F11.6°C 33.2°F0.7°C 47% 0.8 mph NE1.3 kmh NE 5.1 mph8.2 kmh 30.05 in1017.6 mb 0.00 in0.0 mm 0.00 in0.0 mm 0.00 in0.0 mm
07:45 PM 52.9°F11.6°C 32.6°F0.3°C 46% 1.6 mph N2.6 kmh N 9.8 mph15.8 kmh 30.06 in1017.9 mb 0.00 in0.0 mm 0.00 in0.0 mm 0.00 in0.0 mm
08:00 PM 52.3°F11.3°C 33.2°F0.7°C 48% 0.5 mph NW0.8 kmh NW 4.3 mph6.9 kmh 30.07 in1018.3 mb 0.00 in0.0 mm 0.00 in0.0 mm 0.00 in0.0 mm
08:15 PM 52.0°F11.1°C 32.9°F0.5°C 48% 0.8 mph NNE1.3 kmh NNE 3.8 mph6.1 kmh 30.07 in1018.3 mb 0.00 in0.0 mm 0.00 in0.0 mm 0.00 in0.0 mm
08:30 PM 51.4°F10.8°C 32.9°F0.5°C 49% 0.5 mph NNW0.8 kmh NNW 4.3 mph6.9 kmh 30.07 in1018.3 mb 0.00 in0.0 mm 0.00 in0.0 mm 0.00 in0.0 mm
08:45 PM 50.9°F10.5°C 32.9°F0.5°C 50% 0.4 mph SSW0.6 kmh SSW 4.3 mph6.9 kmh 30.08 in1018.6 mb 0.00 in0.0 mm 0.00 in0.0 mm 0.00 in0.0 mm
09:00 PM 50.0°F10.0°C 32.6°F0.3°C 51% 0.7 mph SW1.1 kmh SW 3.6 mph5.8 kmh 30.08 in1018.6 mb 0.00 in0.0 mm 0.00 in0.0 mm 0.00 in0.0 mm
09:15 PM 50.4°F10.2°C 32.4°F0.2°C 50% 1.2 mph NW1.9 kmh NW 5.4 mph8.7 kmh 30.08 in1018.6 mb 0.00 in0.0 mm 0.00 in0.0 mm 0.00 in0.0 mm
09:30 PM 50.2°F10.1°C 32.7°F0.4°C 51% 0.8 mph SSW1.3 kmh SSW 5.4 mph8.7 kmh 30.08 in1018.6 mb 0.00 in0.0 mm 0.00 in0.0 mm 0.00 in0.0 mm
09:45 PM 49.8°F9.9°C 32.4°F0.2°C 51% 0.5 mph NNW0.8 kmh NNW 4.7 mph7.6 kmh 30.09 in1019.0 mb 0.00 in0.0 mm 0.00 in0.0 mm 0.00 in0.0 mm
10:00 PM 49.6°F9.8°C 32.7°F0.4°C 52% 0.6 mph NNE1.0 kmh NNE 6.0 mph9.7 kmh 30.09 in1019.0 mb 0.00 in0.0 mm 0.00 in0.0 mm 0.00 in0.0 mm
10:15 PM 49.3°F9.6°C 31.9°F-0.1°C 51% 0.2 mph SW0.3 kmh SW 2.0 mph3.2 kmh 30.09 in1019.0 mb 0.00 in0.0 mm 0.00 in0.0 mm 0.00 in0.0 mm
10:30 PM 48.7°F9.3°C 31.9°F-0.1°C 52% 0.5 mph W0.8 kmh W 4.5 mph7.2 kmh 30.09 in1019.0 mb 0.00 in0.0 mm 0.00 in0.0 mm 0.00 in0.0 mm
10:45 PM 48.4°F9.1°C 32.0°F0.0°C 53% 0.7 mph SSW1.1 kmh SSW 5.1 mph8.2 kmh 30.09 in1019.0 mb 0.00 in0.0 mm 0.00 in0.0 mm 0.00 in0.0 mm
11:00 PM 48.0°F8.9°C 32.2°F0.1°C 54% 0.2 mph SW0.3 kmh SW 2.7 mph4.3 kmh 30.09 in1019.0 mb 0.00 in0.0 mm 0.00 in0.0 mm 0.00 in0.0 mm
11:15 PM 47.8°F8.8°C 32.0°F0.0°C 54% 0.9 mph SW1.4 kmh SW 5.1 mph8.2 kmh 30.09 in1019.0 mb 0.00 in0.0 mm 0.00 in0.0 mm 0.00 in0.0 mm
11:30 PM 47.5°F8.6°C 32.1°F0.1°C 55% 0.4 mph SW0.6 kmh SW 2.5 mph4.0 kmh 30.09 in1019.0 mb 0.00 in0.0 mm 0.00 in0.0 mm 0.00 in0.0 mm
11:45 PM 47.7°F8.7°C 32.3°F0.2°C 55% 0.6 mph WSW1.0 kmh WSW 3.8 mph6.1 kmh 30.09 in1019.0 mb 0.00 in0.0 mm 0.00 in0.0 mm 0.00 in0.0 mm